sensor_id;sensor_type;location;lat;lon;timestamp;P1;durP1;ratioP1;P2;durP2;ratioP2
55829;SDS011;41759;53.330;6.002;2024-02-15T00:00:11;53.30;;;13.13;;
55829;SDS011;41759;53.330;6.002;2024-02-15T00:02:37;45.53;;;13.35;;
55829;SDS011;41759;53.330;6.002;2024-02-15T00:05:03;45.05;;;13.25;;
55829;SDS011;41759;53.330;6.002;2024-02-15T00:07:30;37.30;;;13.35;;
55829;SDS011;41759;53.330;6.002;2024-02-15T00:09:55;36.50;;;12.10;;
55829;SDS011;41759;53.330;6.002;2024-02-15T00:12:21;48.00;;;13.00;;
55829;SDS011;41759;53.330;6.002;2024-02-15T00:14:47;46.80;;;13.25;;
55829;SDS011;41759;53.330;6.002;2024-02-15T00:17:13;44.97;;;11.88;;
55829;SDS011;41759;53.330;6.002;2024-02-15T00:19:39;43.85;;;11.18;;
55829;SDS011;41759;53.330;6.002;2024-02-15T00:22:07;46.25;;;12.63;;
55829;SDS011;41759;53.330;6.002;2024-02-15T00:24:33;39.83;;;11.13;;
55829;SDS011;41759;53.330;6.002;2024-02-15T00:26:58;31.30;;;10.43;;
55829;SDS011;41759;53.330;6.002;2024-02-15T00:29:24;35.65;;;10.23;;
55829;SDS011;41759;53.330;6.002;2024-02-15T00:31:51;32.97;;;10.02;;
55829;SDS011;41759;53.330;6.002;2024-02-15T00:34:17;25.48;;;9.13;;
55829;SDS011;41759;53.330;6.002;2024-02-15T00:36:43;30.73;;;9.77;;
55829;SDS011;41759;53.330;6.002;2024-02-15T00:39:11;34.45;;;10.00;;
55829;SDS011;41759;53.330;6.002;2024-02-15T00:41:39;36.13;;;9.05;;
55829;SDS011;41759;53.330;6.002;2024-02-15T00:44:09;30.75;;;8.70;;
55829;SDS011;41759;53.330;6.002;2024-02-15T00:46:36;33.20;;;8.90;;
55829;SDS011;41759;53.330;6.002;2024-02-15T00:49:03;25.92;;;8.73;;
55829;SDS011;41759;53.330;6.002;2024-02-15T00:51:35;36.15;;;7.88;;
55829;SDS011;41759;53.330;6.002;2024-02-15T00:54:01;27.30;;;7.93;;
55829;SDS011;41759;53.330;6.002;2024-02-15T00:56:27;28.13;;;6.88;;
55829;SDS011;41759;53.330;6.002;2024-02-15T00:58:56;27.85;;;7.63;;
55829;SDS011;41759;53.330;6.002;2024-02-15T01:01:22;25.30;;;8.07;;
55829;SDS011;41759;53.330;6.002;2024-02-15T01:03:48;23.52;;;7.20;;
55829;SDS011;41759;53.330;6.002;2024-02-15T01:06:13;27.88;;;7.55;;
55829;SDS011;41759;53.330;6.002;2024-02-15T01:08:39;26.58;;;7.90;;
55829;SDS011;41759;53.330;6.002;2024-02-15T01:11:05;26.15;;;7.78;;
55829;SDS011;41759;53.330;6.002;2024-02-15T01:13:31;23.02;;;7.78;;
55829;SDS011;41759;53.330;6.002;2024-02-15T01:15:57;26.05;;;7.97;;
55829;SDS011;41759;53.330;6.002;2024-02-15T01:18:22;27.13;;;7.57;;
55829;SDS011;41759;53.330;6.002;2024-02-15T01:20:48;29.17;;;7.78;;
55829;SDS011;41759;53.330;6.002;2024-02-15T01:23:14;32.90;;;6.95;;
55829;SDS011;41759;53.330;6.002;2024-02-15T01:25:40;25.45;;;7.82;;
55829;SDS011;41759;53.330;6.002;2024-02-15T01:28:06;28.48;;;7.57;;
55829;SDS011;41759;53.330;6.002;2024-02-15T01:30:31;27.65;;;7.70;;
55829;SDS011;41759;53.330;6.002;2024-02-15T01:32:58;32.03;;;7.75;;
55829;SDS011;41759;53.330;6.002;2024-02-15T01:35:24;30.92;;;7.43;;
55829;SDS011;41759;53.330;6.002;2024-02-15T01:37:50;28.20;;;7.60;;
55829;SDS011;41759;53.330;6.002;2024-02-15T01:40:16;24.75;;;6.93;;
55829;SDS011;41759;53.330;6.002;2024-02-15T01:42:42;25.35;;;7.38;;
55829;SDS011;41759;53.330;6.002;2024-02-15T01:45:09;33.10;;;8.57;;
55829;SDS011;41759;53.330;6.002;2024-02-15T01:47:37;26.30;;;8.05;;
55829;SDS011;41759;53.330;6.002;2024-02-15T01:50:05;29.75;;;7.72;;
55829;SDS011;41759;53.330;6.002;2024-02-15T01:52:32;19.38;;;6.97;;
55829;SDS011;41759;53.330;6.002;2024-02-15T01:54:58;24.65;;;6.93;;
55829;SDS011;41759;53.330;6.002;2024-02-15T01:57:32;19.05;;;6.85;;
55829;SDS011;41759;53.330;6.002;2024-02-15T01:59:58;22.85;;;6.82;;
55829;SDS011;41759;53.330;6.002;2024-02-15T02:02:24;27.83;;;7.03;;
55829;SDS011;41759;53.330;6.002;2024-02-15T02:04:55;19.80;;;5.95;;
55829;SDS011;41759;53.330;6.002;2024-02-15T02:07:21;32.22;;;6.80;;
55829;SDS011;41759;53.330;6.002;2024-02-15T02:09:47;23.15;;;6.68;;
55829;SDS011;41759;53.330;6.002;2024-02-15T02:12:14;20.10;;;6.72;;
55829;SDS011;41759;53.330;6.002;2024-02-15T02:14:40;18.88;;;6.18;;
55829;SDS011;41759;53.330;6.002;2024-02-15T02:17:15;25.15;;;6.80;;
55829;SDS011;41759;53.330;6.002;2024-02-15T02:19:41;24.40;;;6.50;;
55829;SDS011;41759;53.330;6.002;2024-02-15T02:22:08;24.65;;;6.60;;
55829;SDS011;41759;53.330;6.002;2024-02-15T02:24:36;21.33;;;6.15;;
55829;SDS011;41759;53.330;6.002;2024-02-15T02:27:10;23.88;;;7.15;;
55829;SDS011;41759;53.330;6.002;2024-02-15T02:29:42;25.40;;;6.68;;
55829;SDS011;41759;53.330;6.002;2024-02-15T02:32:11;20.63;;;7.38;;
55829;SDS011;41759;53.330;6.002;2024-02-15T02:34:37;22.83;;;7.28;;
55829;SDS011;41759;53.330;6.002;2024-02-15T02:37:06;26.67;;;7.35;;
55829;SDS011;41759;53.330;6.002;2024-02-15T02:39:33;18.10;;;7.85;;
55829;SDS011;41759;53.330;6.002;2024-02-15T02:41:59;19.45;;;7.63;;
55829;SDS011;41759;53.330;6.002;2024-02-15T02:44:25;24.88;;;8.05;;
55829;SDS011;41759;53.330;6.002;2024-02-15T02:46:50;26.75;;;8.15;;
55829;SDS011;41759;53.330;6.002;2024-02-15T02:49:16;21.05;;;8.40;;
55829;SDS011;41759;53.330;6.002;2024-02-15T02:51:42;22.05;;;7.97;;
55829;SDS011;41759;53.330;6.002;2024-02-15T02:54:08;28.25;;;7.63;;
55829;SDS011;41759;53.330;6.002;2024-02-15T02:56:33;28.75;;;7.90;;
55829;SDS011;41759;53.330;6.002;2024-02-15T02:58:59;23.88;;;8.00;;
55829;SDS011;41759;53.330;6.002;2024-02-15T03:01:25;24.08;;;8.05;;
55829;SDS011;41759;53.330;6.002;2024-02-15T03:03:51;26.10;;;8.95;;
55829;SDS011;41759;53.330;6.002;2024-02-15T03:06:20;24.45;;;9.15;;
55829;SDS011;41759;53.330;6.002;2024-02-15T03:08:46;28.15;;;8.20;;
55829;SDS011;41759;53.330;6.002;2024-02-15T03:11:12;29.33;;;9.45;;
55829;SDS011;41759;53.330;6.002;2024-02-15T03:13:39;36.08;;;9.68;;
55829;SDS011;41759;53.330;6.002;2024-02-15T03:16:05;33.70;;;9.63;;
55829;SDS011;41759;53.330;6.002;2024-02-15T03:18:31;32.78;;;10.00;;
55829;SDS011;41759;53.330;6.002;2024-02-15T03:21:00;35.35;;;9.60;;
55829;SDS011;41759;53.330;6.002;2024-02-15T03:23:26;31.85;;;8.80;;
55829;SDS011;41759;53.330;6.002;2024-02-15T03:25:51;29.13;;;9.35;;
55829;SDS011;41759;53.330;6.002;2024-02-15T03:28:18;36.70;;;9.45;;
55829;SDS011;41759;53.330;6.002;2024-02-15T03:30:46;24.58;;;8.45;;
55829;SDS011;41759;53.330;6.002;2024-02-15T03:33:12;38.22;;;8.32;;
55829;SDS011;41759;53.330;6.002;2024-02-15T03:35:38;38.67;;;7.90;;
55829;SDS011;41759;53.330;6.002;2024-02-15T03:38:04;31.85;;;8.60;;
55829;SDS011;41759;53.330;6.002;2024-02-15T03:40:30;38.38;;;7.90;;
55829;SDS011;41759;53.330;6.002;2024-02-15T03:42:57;34.20;;;7.72;;
55829;SDS011;41759;53.330;6.002;2024-02-15T03:45:23;39.92;;;8.50;;
55829;SDS011;41759;53.330;6.002;2024-02-15T03:47:53;31.92;;;8.73;;
55829;SDS011;41759;53.330;6.002;2024-02-15T03:50:20;30.30;;;8.70;;
55829;SDS011;41759;53.330;6.002;2024-02-15T03:52:49;34.92;;;8.90;;
55829;SDS011;41759;53.330;6.002;2024-02-15T03:55:16;30.05;;;9.80;;
55829;SDS011;41759;53.330;6.002;2024-02-15T03:57:41;34.97;;;10.30;;
55829;SDS011;41759;53.330;6.002;2024-02-15T04:00:11;34.20;;;10.25;;
55829;SDS011;41759;53.330;6.002;2024-02-15T04:02:45;37.10;;;11.18;;
55829;SDS011;41759;53.330;6.002;2024-02-15T04:05:14;37.28;;;11.77;;
55829;SDS011;41759;53.330;6.002;2024-02-15T04:07:39;31.52;;;11.20;;
55829;SDS011;41759;53.330;6.002;2024-02-15T04:10:05;34.80;;;10.38;;
55829;SDS011;41759;53.330;6.002;2024-02-15T04:12:32;38.90;;;11.10;;
55829;SDS011;41759;53.330;6.002;2024-02-15T04:14:58;48.97;;;11.68;;
55829;SDS011;41759;53.330;6.002;2024-02-15T04:17:32;44.33;;;10.98;;
55829;SDS011;41759;53.330;6.002;2024-02-15T04:20:00;29.85;;;10.95;;
55829;SDS011;41759;53.330;6.002;2024-02-15T04:22:26;46.47;;;10.57;;
55829;SDS011;41759;53.330;6.002;2024-02-15T04:24:51;31.65;;;10.65;;
55829;SDS011;41759;53.330;6.002;2024-02-15T04:27:17;34.85;;;9.77;;
55829;SDS011;41759;53.330;6.002;2024-02-15T04:29:46;27.42;;;9.70;;
55829;SDS011;41759;53.330;6.002;2024-02-15T04:32:12;38.97;;;10.98;;
55829;SDS011;41759;53.330;6.002;2024-02-15T04:34:38;34.72;;;10.13;;
55829;SDS011;41759;53.330;6.002;2024-02-15T04:37:07;26.83;;;9.85;;
55829;SDS011;41759;53.330;6.002;2024-02-15T04:39:33;40.97;;;9.60;;
55829;SDS011;41759;53.330;6.002;2024-02-15T04:42:01;32.70;;;9.40;;
55829;SDS011;41759;53.330;6.002;2024-02-15T04:44:27;23.92;;;8.80;;
55829;SDS011;41759;53.330;6.002;2024-02-15T04:46:53;31.75;;;9.38;;
55829;SDS011;41759;53.330;6.002;2024-02-15T04:49:19;30.60;;;9.05;;
55829;SDS011;41759;53.330;6.002;2024-02-15T04:51:46;37.97;;;10.73;;
55829;SDS011;41759;53.330;6.002;2024-02-15T04:54:12;34.85;;;10.90;;
55829;SDS011;41759;53.330;6.002;2024-02-15T04:56:39;35.67;;;12.25;;
55829;SDS011;41759;53.330;6.002;2024-02-15T04:59:05;34.60;;;11.15;;
55829;SDS011;41759;53.330;6.002;2024-02-15T05:01:37;41.55;;;13.68;;
55829;SDS011;41759;53.330;6.002;2024-02-15T05:04:02;45.50;;;13.15;;
55829;SDS011;41759;53.330;6.002;2024-02-15T05:06:32;42.47;;;12.43;;
55829;SDS011;41759;53.330;6.002;2024-02-15T05:08:58;42.13;;;13.57;;
55829;SDS011;41759;53.330;6.002;2024-02-15T05:11:25;33.03;;;13.50;;
55829;SDS011;41759;53.330;6.002;2024-02-15T05:13:51;38.63;;;12.40;;
55829;SDS011;41759;53.330;6.002;2024-02-15T05:16:17;35.45;;;13.27;;
55829;SDS011;41759;53.330;6.002;2024-02-15T05:18:43;36.55;;;12.75;;
55829;SDS011;41759;53.330;6.002;2024-02-15T05:21:11;43.13;;;12.50;;
55829;SDS011;41759;53.330;6.002;2024-02-15T05:23:37;37.08;;;11.50;;
55829;SDS011;41759;53.330;6.002;2024-02-15T05:26:05;32.95;;;12.48;;
55829;SDS011;41759;53.330;6.002;2024-02-15T05:28:31;32.13;;;12.50;;
55829;SDS011;41759;53.330;6.002;2024-02-15T05:31:13;32.67;;;13.65;;
55829;SDS011;41759;53.330;6.002;2024-02-15T05:33:45;35.60;;;12.95;;
55829;SDS011;41759;53.330;6.002;2024-02-15T05:36:16;34.72;;;13.20;;
55829;SDS011;41759;53.330;6.002;2024-02-15T05:38:49;42.92;;;12.73;;
55829;SDS011;41759;53.330;6.002;2024-02-15T05:41:17;32.78;;;11.95;;
55829;SDS011;41759;53.330;6.002;2024-02-15T05:43:42;25.27;;;11.88;;
55829;SDS011;41759;53.330;6.002;2024-02-15T05:46:09;34.50;;;12.38;;
55829;SDS011;41759;53.330;6.002;2024-02-15T05:48:35;36.15;;;14.10;;
55829;SDS011;41759;53.330;6.002;2024-02-15T05:51:02;34.03;;;12.93;;
55829;SDS011;41759;53.330;6.002;2024-02-15T05:53:29;36.17;;;13.20;;
55829;SDS011;41759;53.330;6.002;2024-02-15T05:55:55;36.10;;;12.32;;
55829;SDS011;41759;53.330;6.002;2024-02-15T05:58:22;37.63;;;13.10;;
55829;SDS011;41759;53.330;6.002;2024-02-15T06:00:48;35.85;;;13.18;;
55829;SDS011;41759;53.330;6.002;2024-02-15T06:03:18;36.78;;;13.18;;
55829;SDS011;41759;53.330;6.002;2024-02-15T06:05:48;35.35;;;13.00;;
55829;SDS011;41759;53.330;6.002;2024-02-15T06:08:13;36.20;;;13.70;;
55829;SDS011;41759;53.330;6.002;2024-02-15T06:10:39;35.08;;;13.48;;
55829;SDS011;41759;53.330;6.002;2024-02-15T06:13:06;29.95;;;12.68;;
55829;SDS011;41759;53.330;6.002;2024-02-15T06:15:34;41.78;;;13.65;;
55829;SDS011;41759;53.330;6.002;2024-02-15T06:18:01;40.35;;;14.23;;
55829;SDS011;41759;53.330;6.002;2024-02-15T06:20:28;31.08;;;12.32;;
55829;SDS011;41759;53.330;6.002;2024-02-15T06:22:55;36.22;;;13.80;;
55829;SDS011;41759;53.330;6.002;2024-02-15T06:25:21;41.20;;;14.23;;
55829;SDS011;41759;53.330;6.002;2024-02-15T06:27:48;39.75;;;13.57;;
55829;SDS011;41759;53.330;6.002;2024-02-15T06:30:16;35.72;;;14.15;;
55829;SDS011;41759;53.330;6.002;2024-02-15T06:33:00;36.28;;;13.20;;
55829;SDS011;41759;53.330;6.002;2024-02-15T06:35:44;40.72;;;13.38;;
55829;SDS011;41759;53.330;6.002;2024-02-15T06:38:28;34.97;;;12.98;;
55829;SDS011;41759;53.330;6.002;2024-02-15T06:41:13;40.85;;;13.38;;
55829;SDS011;41759;53.330;6.002;2024-02-15T06:43:38;31.77;;;13.40;;
55829;SDS011;41759;53.330;6.002;2024-02-15T06:46:08;40.05;;;13.75;;
55829;SDS011;41759;53.330;6.002;2024-02-15T06:48:36;33.55;;;13.38;;
55829;SDS011;41759;53.330;6.002;2024-02-15T06:51:02;34.50;;;13.25;;
55829;SDS011;41759;53.330;6.002;2024-02-15T06:53:29;47.85;;;18.27;;
55829;SDS011;41759;53.330;6.002;2024-02-15T06:55:55;34.33;;;14.07;;
55829;SDS011;41759;53.330;6.002;2024-02-15T06:58:22;36.58;;;16.92;;
55829;SDS011;41759;53.330;6.002;2024-02-15T07:00:48;40.25;;;14.77;;
55829;SDS011;41759;53.330;6.002;2024-02-15T07:03:16;36.85;;;14.07;;
55829;SDS011;41759;53.330;6.002;2024-02-15T07:05:42;41.08;;;13.95;;
55829;SDS011;41759;53.330;6.002;2024-02-15T07:08:08;31.45;;;13.50;;
55829;SDS011;41759;53.330;6.002;2024-02-15T07:10:40;40.83;;;15.35;;
55829;SDS011;41759;53.330;6.002;2024-02-15T07:13:06;43.90;;;15.80;;
55829;SDS011;41759;53.330;6.002;2024-02-15T07:15:32;47.30;;;15.25;;
55829;SDS011;41759;53.330;6.002;2024-02-15T07:18:06;40.35;;;14.73;;
55829;SDS011;41759;53.330;6.002;2024-02-15T07:20:32;43.67;;;15.43;;
55829;SDS011;41759;53.330;6.002;2024-02-15T07:22:58;51.67;;;15.98;;
55829;SDS011;41759;53.330;6.002;2024-02-15T07:25:24;50.00;;;15.48;;
55829;SDS011;41759;53.330;6.002;2024-02-15T07:27:50;47.05;;;16.27;;
55829;SDS011;41759;53.330;6.002;2024-02-15T07:30:17;50.13;;;16.48;;
55829;SDS011;41759;53.330;6.002;2024-02-15T07:32:43;45.83;;;16.30;;
55829;SDS011;41759;53.330;6.002;2024-02-15T07:35:09;55.28;;;16.67;;
55829;SDS011;41759;53.330;6.002;2024-02-15T07:37:35;50.47;;;16.45;;
55829;SDS011;41759;53.330;6.002;2024-02-15T07:40:01;60.20;;;18.60;;
55829;SDS011;41759;53.330;6.002;2024-02-15T07:42:32;56.88;;;18.08;;
55829;SDS011;41759;53.330;6.002;2024-02-15T07:45:00;54.55;;;17.27;;
55829;SDS011;41759;53.330;6.002;2024-02-15T07:47:26;45.35;;;16.63;;
55829;SDS011;41759;53.330;6.002;2024-02-15T07:49:52;54.42;;;17.85;;
55829;SDS011;41759;53.330;6.002;2024-02-15T07:52:17;48.58;;;17.10;;
55829;SDS011;41759;53.330;6.002;2024-02-15T07:54:44;48.53;;;17.70;;
55829;SDS011;41759;53.330;6.002;2024-02-15T07:57:09;45.35;;;16.88;;
55829;SDS011;41759;53.330;6.002;2024-02-15T07:59:36;41.95;;;16.48;;
55829;SDS011;41759;53.330;6.002;2024-02-15T08:02:04;46.78;;;16.45;;
55829;SDS011;41759;53.330;6.002;2024-02-15T08:04:30;44.30;;;16.77;;
55829;SDS011;41759;53.330;6.002;2024-02-15T08:06:56;42.88;;;15.88;;
55829;SDS011;41759;53.330;6.002;2024-02-15T08:09:22;42.33;;;15.85;;
55829;SDS011;41759;53.330;6.002;2024-02-15T08:11:49;41.17;;;15.40;;
55829;SDS011;41759;53.330;6.002;2024-02-15T08:14:16;38.80;;;14.95;;
55829;SDS011;41759;53.330;6.002;2024-02-15T08:16:42;46.00;;;14.27;;
55829;SDS011;41759;53.330;6.002;2024-02-15T08:19:07;41.45;;;14.43;;
55829;SDS011;41759;53.330;6.002;2024-02-15T08:21:33;39.03;;;14.38;;
55829;SDS011;41759;53.330;6.002;2024-02-15T08:24:04;38.35;;;13.73;;
55829;SDS011;41759;53.330;6.002;2024-02-15T08:26:39;36.00;;;12.57;;
55829;SDS011;41759;53.330;6.002;2024-02-15T08:29:06;34.60;;;12.85;;
55829;SDS011;41759;53.330;6.002;2024-02-15T08:31:32;29.48;;;11.45;;
55829;SDS011;41759;53.330;6.002;2024-02-15T08:34:01;30.17;;;11.25;;
55829;SDS011;41759;53.330;6.002;2024-02-15T08:36:30;35.72;;;12.07;;
55829;SDS011;41759;53.330;6.002;2024-02-15T08:38:56;34.85;;;13.35;;
55829;SDS011;41759;53.330;6.002;2024-02-15T08:41:22;43.42;;;16.02;;
55829;SDS011;41759;53.330;6.002;2024-02-15T08:43:52;46.60;;;15.20;;
55829;SDS011;41759;53.330;6.002;2024-02-15T08:46:18;53.28;;;16.80;;
55829;SDS011;41759;53.330;6.002;2024-02-15T08:48:44;43.53;;;15.98;;
55829;SDS011;41759;53.330;6.002;2024-02-15T08:51:13;47.38;;;16.55;;
55829;SDS011;41759;53.330;6.002;2024-02-15T08:53:39;55.13;;;16.33;;
55829;SDS011;41759;53.330;6.002;2024-02-15T08:56:04;45.53;;;15.52;;
55829;SDS011;41759;53.330;6.002;2024-02-15T08:58:31;42.40;;;15.93;;
55829;SDS011;41759;53.330;6.002;2024-02-15T09:00:57;46.30;;;16.35;;
55829;SDS011;41759;53.330;6.002;2024-02-15T09:03:23;42.53;;;15.63;;
55829;SDS011;41759;53.330;6.002;2024-02-15T09:05:50;45.72;;;15.15;;
55829;SDS011;41759;53.330;6.002;2024-02-15T09:08:16;44.83;;;15.38;;
55829;SDS011;41759;53.330;6.002;2024-02-15T09:10:46;44.50;;;15.63;;
55829;SDS011;41759;53.330;6.002;2024-02-15T09:13:12;47.20;;;15.85;;
55829;SDS011;41759;53.330;6.002;2024-02-15T09:15:38;43.67;;;16.08;;
55829;SDS011;41759;53.330;6.002;2024-02-15T09:18:06;47.30;;;16.23;;
55829;SDS011;41759;53.330;6.002;2024-02-15T09:20:35;44.78;;;16.35;;
55829;SDS011;41759;53.330;6.002;2024-02-15T09:23:02;44.70;;;16.10;;
55829;SDS011;41759;53.330;6.002;2024-02-15T09:25:34;43.75;;;16.17;;
55829;SDS011;41759;53.330;6.002;2024-02-15T09:28:02;42.45;;;16.25;;
55829;SDS011;41759;53.330;6.002;2024-02-15T09:30:28;38.63;;;14.80;;
55829;SDS011;41759;53.330;6.002;2024-02-15T09:32:58;40.75;;;15.80;;
55829;SDS011;41759;53.330;6.002;2024-02-15T09:35:24;33.15;;;13.25;;
55829;SDS011;41759;53.330;6.002;2024-02-15T09:37:51;33.92;;;14.10;;
55829;SDS011;41759;53.330;6.002;2024-02-15T09:40:20;32.83;;;12.60;;
55829;SDS011;41759;53.330;6.002;2024-02-15T09:42:46;32.92;;;13.82;;
55829;SDS011;41759;53.330;6.002;2024-02-15T09:45:13;34.45;;;14.23;;
55829;SDS011;41759;53.330;6.002;2024-02-15T09:47:43;32.63;;;13.60;;
55829;SDS011;41759;53.330;6.002;2024-02-15T09:50:10;27.25;;;12.25;;
55829;SDS011;41759;53.330;6.002;2024-02-15T09:52:38;31.73;;;12.25;;
55829;SDS011;41759;53.330;6.002;2024-02-15T09:55:06;25.95;;;12.32;;
55829;SDS011;41759;53.330;6.002;2024-02-15T09:57:38;26.75;;;11.43;;
55829;SDS011;41759;53.330;6.002;2024-02-15T10:00:04;27.65;;;11.27;;
55829;SDS011;41759;53.330;6.002;2024-02-15T10:02:32;21.30;;;10.52;;
55829;SDS011;41759;53.330;6.002;2024-02-15T10:05:01;19.75;;;9.93;;
55829;SDS011;41759;53.330;6.002;2024-02-15T10:07:27;19.55;;;9.38;;
55829;SDS011;41759;53.330;6.002;2024-02-15T10:09:54;15.68;;;8.43;;
55829;SDS011;41759;53.330;6.002;2024-02-15T10:12:20;19.13;;;8.30;;
55829;SDS011;41759;53.330;6.002;2024-02-15T10:14:49;15.10;;;7.22;;
55829;SDS011;41759;53.330;6.002;2024-02-15T10:17:20;15.32;;;8.25;;
55829;SDS011;41759;53.330;6.002;2024-02-15T10:20:05;16.95;;;7.97;;
55829;SDS011;41759;53.330;6.002;2024-02-15T10:22:31;19.10;;;8.05;;
55829;SDS011;41759;53.330;6.002;2024-02-15T10:25:10;19.75;;;8.88;;
55829;SDS011;41759;53.330;6.002;2024-02-15T10:27:37;14.13;;;7.90;;
55829;SDS011;41759;53.330;6.002;2024-02-15T10:30:16;16.77;;;9.18;;
55829;SDS011;41759;53.330;6.002;2024-02-15T10:32:44;15.85;;;7.75;;
55829;SDS011;41759;53.330;6.002;2024-02-15T10:35:10;15.20;;;8.75;;
55829;SDS011;41759;53.330;6.002;2024-02-15T10:37:43;16.73;;;8.60;;
55829;SDS011;41759;53.330;6.002;2024-02-15T10:40:09;14.20;;;8.00;;
55829;SDS011;41759;53.330;6.002;2024-02-15T10:42:38;14.75;;;8.02;;
55829;SDS011;41759;53.330;6.002;2024-02-15T10:45:07;13.57;;;7.72;;
55829;SDS011;41759;53.330;6.002;2024-02-15T10:47:37;14.55;;;7.25;;
55829;SDS011;41759;53.330;6.002;2024-02-15T10:50:05;14.88;;;8.15;;
55829;SDS011;41759;53.330;6.002;2024-02-15T10:52:36;14.18;;;8.73;;
55829;SDS011;41759;53.330;6.002;2024-02-15T10:55:06;12.20;;;7.35;;
55829;SDS011;41759;53.330;6.002;2024-02-15T10:57:37;15.70;;;8.07;;
55829;SDS011;41759;53.330;6.002;2024-02-15T11:00:04;14.02;;;7.65;;
55829;SDS011;41759;53.330;6.002;2024-02-15T11:02:42;12.90;;;8.15;;
55829;SDS011;41759;53.330;6.002;2024-02-15T11:05:34;13.60;;;8.05;;
55829;SDS011;41759;53.330;6.002;2024-02-15T11:08:03;11.38;;;8.20;;
55829;SDS011;41759;53.330;6.002;2024-02-15T11:10:37;14.15;;;8.35;;
55829;SDS011;41759;53.330;6.002;2024-02-15T11:13:05;11.05;;;7.43;;
55829;SDS011;41759;53.330;6.002;2024-02-15T11:15:44;12.77;;;8.52;;
55829;SDS011;41759;53.330;6.002;2024-02-15T11:18:12;9.43;;;6.78;;
55829;SDS011;41759;53.330;6.002;2024-02-15T11:23:06;9.52;;;6.38;;
55829;SDS011;41759;53.330;6.002;2024-02-15T11:25:35;8.75;;;6.65;;
55829;SDS011;41759;53.330;6.002;2024-02-15T11:30:54;9.95;;;6.30;;
55829;SDS011;41759;53.330;6.002;2024-02-15T11:33:30;11.13;;;6.47;;
55829;SDS011;41759;53.330;6.002;2024-02-15T11:36:13;8.75;;;5.90;;
55829;SDS011;41759;53.330;6.002;2024-02-15T11:38:39;9.25;;;5.60;;
55829;SDS011;41759;53.330;6.002;2024-02-15T11:41:11;9.02;;;6.10;;
55829;SDS011;41759;53.330;6.002;2024-02-15T11:46:14;9.57;;;6.20;;
55829;SDS011;41759;53.330;6.002;2024-02-15T11:48:47;9.98;;;5.70;;
55829;SDS011;41759;53.330;6.002;2024-02-15T11:54:11;11.30;;;6.70;;
55829;SDS011;41759;53.330;6.002;2024-02-15T11:59:09;12.63;;;7.20;;
55829;SDS011;41759;53.330;6.002;2024-02-15T12:01:43;12.38;;;6.93;;
55829;SDS011;41759;53.330;6.002;2024-02-15T12:04:28;11.43;;;7.20;;
55829;SDS011;41759;53.330;6.002;2024-02-15T12:07:13;13.82;;;7.80;;
55829;SDS011;41759;53.330;6.002;2024-02-15T12:09:59;16.17;;;7.70;;
55829;SDS011;41759;53.330;6.002;2024-02-15T12:12:55;19.17;;;8.93;;
55829;SDS011;41759;53.330;6.002;2024-02-15T12:15:40;27.00;;;9.18;;
55829;SDS011;41759;53.330;6.002;2024-02-15T12:18:24;29.95;;;10.20;;
55829;SDS011;41759;53.330;6.002;2024-02-15T12:21:09;37.92;;;11.95;;
55829;SDS011;41759;53.330;6.002;2024-02-15T12:23:40;41.55;;;11.95;;
55829;SDS011;41759;53.330;6.002;2024-02-15T12:26:06;34.83;;;12.95;;
55829;SDS011;41759;53.330;6.002;2024-02-15T12:28:33;37.40;;;12.60;;
55829;SDS011;41759;53.330;6.002;2024-02-15T12:31:00;47.53;;;14.32;;
55829;SDS011;41759;53.330;6.002;2024-02-15T12:33:26;43.70;;;13.68;;
55829;SDS011;41759;53.330;6.002;2024-02-15T12:35:52;54.63;;;13.80;;
55829;SDS011;41759;53.330;6.002;2024-02-15T12:38:31;48.28;;;13.55;;
55829;SDS011;41759;53.330;6.002;2024-02-15T12:40:59;47.38;;;14.18;;
55829;SDS011;41759;53.330;6.002;2024-02-15T12:43:27;52.17;;;14.60;;
55829;SDS011;41759;53.330;6.002;2024-02-15T12:45:53;45.85;;;14.77;;
55829;SDS011;41759;53.330;6.002;2024-02-15T12:48:22;38.58;;;13.90;;
55829;SDS011;41759;53.330;6.002;2024-02-15T12:50:47;36.88;;;13.40;;
55829;SDS011;41759;53.330;6.002;2024-02-15T12:53:20;34.67;;;13.38;;
55829;SDS011;41759;53.330;6.002;2024-02-15T12:55:52;38.35;;;14.00;;
55829;SDS011;41759;53.330;6.002;2024-02-15T12:58:20;38.78;;;14.30;;
55829;SDS011;41759;53.330;6.002;2024-02-15T13:00:45;33.95;;;15.00;;
55829;SDS011;41759;53.330;6.002;2024-02-15T13:03:11;34.00;;;13.70;;
55829;SDS011;41759;53.330;6.002;2024-02-15T13:05:40;39.53;;;14.55;;
55829;SDS011;41759;53.330;6.002;2024-02-15T13:08:05;29.52;;;13.80;;
55829;SDS011;41759;53.330;6.002;2024-02-15T13:10:35;35.58;;;13.90;;
55829;SDS011;41759;53.330;6.002;2024-02-15T13:13:01;29.63;;;13.68;;
55829;SDS011;41759;53.330;6.002;2024-02-15T13:15:27;35.05;;;13.98;;
55829;SDS011;41759;53.330;6.002;2024-02-15T13:17:57;34.95;;;13.65;;
55829;SDS011;41759;53.330;6.002;2024-02-15T13:20:24;30.27;;;14.18;;
55829;SDS011;41759;53.330;6.002;2024-02-15T13:22:57;35.78;;;14.40;;
55829;SDS011;41759;53.330;6.002;2024-02-15T13:25:25;38.47;;;15.07;;
55829;SDS011;41759;53.330;6.002;2024-02-15T13:27:51;37.15;;;15.23;;
55829;SDS011;41759;53.330;6.002;2024-02-15T13:30:17;38.78;;;15.52;;
55829;SDS011;41759;53.330;6.002;2024-02-15T13:32:48;37.30;;;15.75;;
55829;SDS011;41759;53.330;6.002;2024-02-15T13:35:16;41.40;;;15.20;;
55829;SDS011;41759;53.330;6.002;2024-02-15T13:37:51;41.60;;;15.10;;
55829;SDS011;41759;53.330;6.002;2024-02-15T13:40:23;33.67;;;15.35;;
55829;SDS011;41759;53.330;6.002;2024-02-15T13:42:57;36.28;;;15.38;;
55829;SDS011;41759;53.330;6.002;2024-02-15T13:45:24;38.78;;;16.83;;
55829;SDS011;41759;53.330;6.002;2024-02-15T13:47:55;39.72;;;15.90;;
55829;SDS011;41759;53.330;6.002;2024-02-15T13:50:22;33.03;;;15.73;;
55829;SDS011;41759;53.330;6.002;2024-02-15T13:52:48;44.85;;;16.08;;
55829;SDS011;41759;53.330;6.002;2024-02-15T13:55:15;40.25;;;15.85;;
55829;SDS011;41759;53.330;6.002;2024-02-15T13:57:43;46.78;;;20.13;;
55829;SDS011;41759;53.330;6.002;2024-02-15T14:00:13;40.17;;;16.10;;
55829;SDS011;41759;53.330;6.002;2024-02-15T14:02:49;41.38;;;15.90;;
55829;SDS011;41759;53.330;6.002;2024-02-15T14:05:16;41.45;;;15.23;;
55829;SDS011;41759;53.330;6.002;2024-02-15T14:07:49;39.42;;;16.35;;
55829;SDS011;41759;53.330;6.002;2024-02-15T14:10:15;39.65;;;15.88;;
55829;SDS011;41759;53.330;6.002;2024-02-15T14:12:46;40.25;;;15.00;;
55829;SDS011;41759;53.330;6.002;2024-02-15T14:15:17;42.50;;;15.27;;
55829;SDS011;41759;53.330;6.002;2024-02-15T14:17:43;37.38;;;16.20;;
55829;SDS011;41759;53.330;6.002;2024-02-15T14:20:09;35.22;;;16.17;;
55829;SDS011;41759;53.330;6.002;2024-02-15T14:22:43;38.20;;;16.45;;
55829;SDS011;41759;53.330;6.002;2024-02-15T14:25:10;34.67;;;16.02;;
55829;SDS011;41759;53.330;6.002;2024-02-15T14:27:39;42.13;;;16.50;;
55829;SDS011;41759;53.330;6.002;2024-02-15T14:30:06;37.35;;;16.27;;
55829;SDS011;41759;53.330;6.002;2024-02-15T14:32:50;32.03;;;15.98;;
55829;SDS011;41759;53.330;6.002;2024-02-15T14:35:25;38.85;;;16.30;;
55829;SDS011;41759;53.330;6.002;2024-02-15T14:38:05;40.53;;;17.83;;
55829;SDS011;41759;53.330;6.002;2024-02-15T14:40:43;33.92;;;16.88;;
55829;SDS011;41759;53.330;6.002;2024-02-15T14:43:10;37.88;;;16.55;;
55829;SDS011;41759;53.330;6.002;2024-02-15T14:45:37;38.75;;;16.33;;